createdAt,value
2023-05-09T00:00:15.091Z,21.22
2023-05-09T00:01:15.183Z,19.61
2023-05-09T00:02:15.293Z,20.58
2023-05-09T00:03:15.363Z,19.29
2023-05-09T00:04:15.490Z,19.29
2023-05-09T00:05:15.830Z,20.58
2023-05-09T00:06:15.660Z,19.29
2023-05-09T00:07:15.687Z,19.61
2023-05-09T00:08:15.753Z,18.96
2023-05-09T00:09:15.821Z,19.61
2023-05-09T00:10:15.899Z,19.29
2023-05-09T00:11:15.984Z,19.61
2023-05-09T00:12:16.087Z,18.64
2023-05-09T00:13:16.181Z,19.93
2023-05-09T00:14:16.244Z,18.96
2023-05-09T00:15:16.448Z,21.54
2023-05-09T00:16:16.413Z,19.29
2023-05-09T00:17:16.491Z,20.90
2023-05-09T00:18:16.570Z,19.61
2023-05-09T00:19:16.640Z,19.61
2023-05-09T00:20:16.757Z,19.29
2023-05-09T00:21:16.826Z,19.29
2023-05-09T00:22:16.899Z,18.64
2023-05-09T00:23:16.985Z,19.29
2023-05-09T00:24:17.055Z,18.96
2023-05-09T00:25:17.439Z,19.29
2023-05-09T00:26:17.208Z,19.61
2023-05-09T00:27:17.289Z,18.96
2023-05-09T00:28:17.368Z,20.58
2023-05-09T00:29:17.417Z,19.93
2023-05-09T00:30:17.505Z,19.29
2023-05-09T00:31:17.592Z,19.93
2023-05-09T00:32:17.697Z,19.61
2023-05-09T00:33:17.760Z,19.29
2023-05-09T00:34:17.833Z,19.29
2023-05-09T00:35:17.917Z,18.64
2023-05-09T00:36:18.001Z,19.29
2023-05-09T00:37:18.070Z,21.22
2023-05-09T00:38:18.151Z,19.29
2023-05-09T00:39:18.222Z,18.64
2023-05-09T00:40:18.292Z,18.96
2023-05-09T00:41:18.405Z,19.61
2023-05-09T00:42:18.455Z,20.58
2023-05-09T00:43:18.533Z,19.61
2023-05-09T00:44:18.633Z,19.29
2023-05-09T00:45:18.708Z,20.25
2023-05-09T00:46:18.810Z,19.61
2023-05-09T00:47:18.871Z,18.64
2023-05-09T00:48:18.951Z,19.29
2023-05-09T00:49:19.017Z,18.64
2023-05-09T00:50:19.119Z,18.96
2023-05-09T00:51:19.209Z,20.90
2023-05-09T00:52:19.288Z,18.96
2023-05-09T00:53:19.362Z,19.29
2023-05-09T00:54:19.441Z,19.61
2023-05-09T00:55:19.534Z,21.22
2023-05-09T00:56:19.622Z,20.58
2023-05-09T00:57:19.714Z,18.96
2023-05-09T00:58:19.771Z,19.29
2023-05-09T00:59:19.859Z,18.96
2023-05-09T01:00:19.937Z,20.90
2023-05-09T01:01:20.065Z,20.58
2023-05-09T01:02:20.145Z,18.96
2023-05-09T01:03:20.284Z,19.61
2023-05-09T01:04:20.304Z,18.64
2023-05-09T01:05:20.401Z,18.64
2023-05-09T01:06:20.473Z,18.96
2023-05-09T01:07:20.546Z,21.22
2023-05-09T01:08:20.611Z,19.29
2023-05-09T01:09:20.721Z,19.29
2023-05-09T01:10:20.753Z,19.93
2023-05-09T01:11:20.840Z,19.29
2023-05-09T01:12:20.926Z,18.96
2023-05-09T01:13:21.024Z,19.93
2023-05-09T01:14:21.074Z,19.29
2023-05-09T01:15:21.152Z,19.29
2023-05-09T01:16:21.345Z,18.64
2023-05-09T01:17:21.324Z,18.96
2023-05-09T01:18:21.405Z,19.29
2023-05-09T01:19:21.482Z,18.96
2023-05-09T01:20:21.571Z,19.29
2023-05-09T01:21:21.636Z,18.96
2023-05-09T01:22:21.704Z,18.64
2023-05-09T01:23:21.800Z,19.29
2023-05-09T01:24:21.880Z,19.29
2023-05-09T01:25:21.947Z,19.93
2023-05-09T01:26:22.026Z,19.93
2023-05-09T01:27:22.154Z,19.61
2023-05-09T01:28:22.196Z,18.96
2023-05-09T01:29:22.266Z,20.25
2023-05-09T01:30:22.341Z,19.29
2023-05-09T01:31:22.448Z,20.25
2023-05-09T01:32:22.557Z,19.61
2023-05-09T01:33:22.621Z,18.96
2023-05-09T01:34:22.695Z,18.64
2023-05-09T01:35:22.789Z,20.90
2023-05-09T01:36:22.882Z,19.29
2023-05-09T01:37:22.981Z,21.22
2023-05-09T01:38:23.062Z,18.64
2023-05-09T01:39:23.153Z,18.96
2023-05-09T01:40:23.232Z,19.29
2023-05-09T01:41:23.334Z,19.29
2023-05-09T01:42:23.419Z,18.96
2023-05-09T01:43:23.515Z,20.90
2023-05-09T01:44:23.596Z,18.96
2023-05-09T01:45:23.684Z,18.96
2023-05-09T01:46:23.818Z,19.29
2023-05-09T01:47:23.864Z,19.29
2023-05-09T01:48:23.932Z,20.25
2023-05-09T01:49:24.019Z,19.93
2023-05-09T01:50:24.101Z,18.96
2023-05-09T01:51:24.196Z,18.96
2023-05-09T01:52:24.275Z,18.96
2023-05-09T01:53:24.341Z,18.96
2023-05-09T01:54:24.432Z,18.96
2023-05-09T01:55:24.498Z,20.58
2023-05-09T01:56:24.583Z,18.96
2023-05-09T01:57:24.655Z,18.96
2023-05-09T01:58:24.716Z,18.96
2023-05-09T01:59:24.854Z,18.96
2023-05-09T02:00:24.914Z,21.54
2023-05-09T02:01:25.023Z,19.61
2023-05-09T02:02:25.114Z,18.32
2023-05-09T02:03:25.172Z,18.96
2023-05-09T02:04:25.245Z,19.29
2023-05-09T02:05:25.291Z,18.96
2023-05-09T02:06:25.360Z,18.64
2023-05-09T02:07:25.431Z,18.96
2023-05-09T02:08:25.509Z,18.96
2023-05-09T02:09:25.590Z,19.29
2023-05-09T02:10:25.682Z,19.29
2023-05-09T02:11:25.750Z,18.64
2023-05-09T02:12:25.855Z,18.96
2023-05-09T02:13:25.998Z,18.96
2023-05-09T02:14:26.011Z,18.96
2023-05-09T02:15:26.126Z,18.64
2023-05-09T02:16:26.248Z,18.64
2023-05-09T02:17:26.296Z,18.64
2023-05-09T02:18:26.367Z,18.64
2023-05-09T02:19:26.416Z,18.64
2023-05-09T02:20:26.500Z,18.96
2023-05-09T02:21:29.043Z,18.64
2023-05-09T02:22:26.659Z,18.96
2023-05-09T02:23:26.734Z,19.93
2023-05-09T02:24:26.832Z,18.64
2023-05-09T02:25:26.899Z,18.64
2023-05-09T02:26:26.982Z,18.96
2023-05-09T02:27:27.063Z,21.54
2023-05-09T02:28:27.160Z,19.61
2023-05-09T02:29:27.244Z,18.32
2023-05-09T02:30:27.344Z,18.64
2023-05-09T02:31:27.444Z,19.93
2023-05-09T02:32:27.528Z,18.96
2023-05-09T02:33:27.586Z,19.93
2023-05-09T02:34:27.674Z,18.96
2023-05-09T02:35:27.754Z,19.29
2023-05-09T02:36:27.844Z,19.29
2023-05-09T02:37:27.927Z,19.61
2023-05-09T02:38:27.999Z,18.96
2023-05-09T02:39:28.073Z,18.64
2023-05-09T02:40:28.188Z,18.64
2023-05-09T02:41:28.239Z,18.96
2023-05-09T02:42:28.331Z,18.32
2023-05-09T02:43:28.467Z,18.96
2023-05-09T02:44:28.514Z,18.96
2023-05-09T02:45:28.597Z,19.93
2023-05-09T02:46:28.824Z,18.64
2023-05-09T02:47:28.747Z,18.32
2023-05-09T02:48:28.800Z,18.96
2023-05-09T02:49:32.436Z,18.64
2023-05-09T02:50:28.963Z,18.96
2023-05-09T02:51:29.056Z,18.96
2023-05-09T02:52:29.137Z,18.32
2023-05-09T02:53:29.197Z,18.96
2023-05-09T02:54:29.272Z,18.32
2023-05-09T02:55:29.351Z,19.61
2023-05-09T02:56:29.426Z,19.29
2023-05-09T02:57:29.513Z,20.25
2023-05-09T02:58:29.596Z,18.96
2023-05-09T02:59:29.702Z,18.64
2023-05-09T03:00:29.774Z,18.64
2023-05-09T03:01:29.880Z,18.64
2023-05-09T03:02:30.042Z,18.64
2023-05-09T03:03:30.169Z,18.96
2023-05-09T03:04:30.095Z,18.64
2023-05-09T03:05:30.175Z,18.64
2023-05-09T03:06:30.265Z,19.61
2023-05-09T03:07:30.331Z,18.64
2023-05-09T03:08:30.415Z,18.64
2023-05-09T03:09:30.499Z,18.32
2023-05-09T03:10:30.581Z,19.61
2023-05-09T03:11:30.649Z,18.32
2023-05-09T03:12:30.738Z,18.96
2023-05-09T03:13:30.812Z,18.96
2023-05-09T03:14:30.905Z,18.64
2023-05-09T03:15:30.980Z,18.32
2023-05-09T03:16:31.129Z,18.64
2023-05-09T03:17:31.213Z,19.29
2023-05-09T03:18:31.249Z,19.61
2023-05-09T03:19:31.326Z,18.00
2023-05-09T03:20:31.401Z,19.61
2023-05-09T03:21:31.481Z,19.29
2023-05-09T03:22:31.541Z,18.64
2023-05-09T03:23:31.629Z,18.96
2023-05-09T03:24:31.708Z,20.58
2023-05-09T03:25:31.780Z,18.32
2023-05-09T03:26:31.849Z,19.29
2023-05-09T03:27:31.926Z,19.93
2023-05-09T03:28:31.996Z,18.32
2023-05-09T03:29:32.069Z,18.32
2023-05-09T03:30:32.164Z,18.96
2023-05-09T03:31:32.331Z,18.64
2023-05-09T03:32:32.344Z,20.58
2023-05-09T03:33:32.414Z,19.93
2023-05-09T03:34:32.498Z,19.61
2023-05-09T03:35:32.585Z,18.00
2023-05-09T03:36:32.665Z,18.00
2023-05-09T03:37:32.731Z,18.64
2023-05-09T03:38:32.848Z,18.64
2023-05-09T03:39:32.904Z,19.61
2023-05-09T03:40:32.980Z,18.32
2023-05-09T03:41:33.046Z,18.64
2023-05-09T03:42:33.147Z,19.29
2023-05-09T03:43:33.209Z,19.29
2023-05-09T03:44:33.300Z,18.32
2023-05-09T03:45:33.398Z,19.29
2023-05-09T03:46:33.453Z,18.96
2023-05-09T03:47:33.592Z,18.32
2023-05-09T03:48:33.592Z,18.64
2023-05-09T03:49:33.672Z,18.96
2023-05-09T03:50:33.747Z,20.25
2023-05-09T03:51:33.828Z,19.61
2023-05-09T03:52:33.904Z,18.96
2023-05-09T03:53:34.004Z,18.64
2023-05-09T03:54:34.133Z,20.58
2023-05-09T03:55:34.185Z,19.29
2023-05-09T03:56:34.242Z,20.90
2023-05-09T03:57:34.329Z,18.64
2023-05-09T03:58:34.415Z,18.96
2023-05-09T03:59:34.505Z,18.00
2023-05-09T04:00:34.596Z,18.00
2023-05-09T04:01:34.722Z,18.96
2023-05-09T04:02:34.849Z,19.61
2023-05-09T04:03:34.936Z,19.29
2023-05-09T04:04:34.978Z,19.29
2023-05-09T04:05:35.074Z,19.29
2023-05-09T04:06:35.140Z,18.96
2023-05-09T04:07:35.238Z,18.64
2023-05-09T04:08:35.326Z,18.96
2023-05-09T04:09:35.408Z,18.96
2023-05-09T04:10:35.524Z,18.96
2023-05-09T04:11:35.592Z,18.96
2023-05-09T04:12:35.640Z,18.96
2023-05-09T04:13:35.750Z,19.29
2023-05-09T04:14:35.864Z,19.61
2023-05-09T04:15:35.908Z,20.58
2023-05-09T04:16:36.042Z,18.96
2023-05-09T04:17:36.119Z,19.29
2023-05-09T04:18:36.135Z,18.64
2023-05-09T04:19:36.211Z,19.29
2023-05-09T04:20:36.277Z,19.29
2023-05-09T04:21:36.363Z,19.93
2023-05-09T04:22:36.449Z,19.29
2023-05-09T04:23:36.536Z,19.29
2023-05-09T04:24:36.617Z,19.29
2023-05-09T04:25:36.693Z,19.61
2023-05-09T04:26:36.784Z,19.29
2023-05-09T04:27:36.870Z,19.29
2023-05-09T04:28:36.958Z,19.61
2023-05-09T04:29:37.045Z,19.61
2023-05-09T04:30:37.922Z,19.93
2023-05-09T04:31:37.431Z,19.29
2023-05-09T04:32:37.304Z,19.61
2023-05-09T04:33:37.362Z,19.61
2023-05-09T04:34:37.453Z,20.58
2023-05-09T04:35:37.512Z,19.29
2023-05-09T04:36:37.618Z,19.61
2023-05-09T04:37:37.696Z,20.25
2023-05-09T04:38:37.782Z,19.93
2023-05-09T04:39:37.874Z,19.93
2023-05-09T04:40:37.957Z,20.25
2023-05-09T04:41:38.036Z,19.93
2023-05-09T04:42:38.140Z,19.61
2023-05-09T04:43:38.225Z,20.58
2023-05-09T04:44:38.293Z,18.96
2023-05-09T04:45:38.397Z,20.90
2023-05-09T04:46:38.524Z,19.29
2023-05-09T04:47:38.628Z,19.61
2023-05-09T04:48:38.641Z,20.58
2023-05-09T04:49:38.713Z,19.93
2023-05-09T04:50:38.782Z,22.19
2023-05-09T04:51:38.857Z,19.93
2023-05-09T04:52:38.957Z,19.93
2023-05-09T04:53:39.034Z,18.96
2023-05-09T04:54:39.121Z,19.29
2023-05-09T04:56:36.546Z,19.61
2023-05-09T04:57:37.604Z,20.90
2023-05-09T04:58:37.683Z,20.25
2023-05-09T04:59:37.755Z,19.61
2023-05-09T05:00:37.847Z,20.25
2023-05-09T05:01:37.959Z,20.58
2023-05-09T05:02:38.043Z,20.25
2023-05-09T05:03:38.149Z,20.58
2023-05-09T05:04:38.227Z,19.61
2023-05-09T05:05:38.450Z,20.90
2023-05-09T05:06:38.343Z,19.93
2023-05-09T05:07:38.421Z,20.25
2023-05-09T05:08:38.549Z,19.93
2023-05-09T05:09:38.588Z,20.58
2023-05-09T05:10:38.681Z,20.90
2023-05-09T05:11:38.975Z,19.93
2023-05-09T05:12:38.840Z,20.90
2023-05-09T05:13:38.935Z,19.93
2023-05-09T05:14:39.040Z,20.25
2023-05-09T05:15:39.128Z,20.58
2023-05-09T05:16:39.291Z,20.25
2023-05-09T05:17:39.305Z,20.25
2023-05-09T05:18:39.402Z,21.22
2023-05-09T05:19:39.481Z,20.58
2023-05-09T05:20:39.571Z,20.25
2023-05-09T05:21:39.646Z,20.58
2023-05-09T05:22:39.731Z,22.19
2023-05-09T05:23:39.824Z,19.93
2023-05-09T05:24:39.932Z,21.22
2023-05-09T05:25:40.003Z,20.25
2023-05-09T05:26:40.075Z,20.58
2023-05-09T05:27:40.150Z,21.22
2023-05-09T05:28:40.245Z,20.90
2023-05-09T05:29:40.331Z,20.25
2023-05-09T05:30:40.411Z,22.19
2023-05-09T05:31:40.527Z,20.58
2023-05-09T05:32:40.606Z,20.58
2023-05-09T05:33:40.668Z,20.25
2023-05-09T05:34:40.737Z,20.58
2023-05-09T05:35:40.855Z,20.25
2023-05-09T05:36:40.924Z,20.25
2023-05-09T05:37:41.024Z,20.25
2023-05-09T05:38:41.110Z,21.22
2023-05-09T05:39:41.187Z,20.90
2023-05-09T05:40:41.271Z,19.93
2023-05-09T05:41:41.349Z,20.90
2023-05-09T05:42:41.420Z,20.58
2023-05-09T05:43:41.509Z,20.58
2023-05-09T05:44:41.598Z,20.90
2023-05-09T05:45:41.737Z,20.58
2023-05-09T05:46:41.756Z,20.58
2023-05-09T05:47:41.847Z,19.61
2023-05-09T05:48:41.914Z,20.58
2023-05-09T05:49:41.984Z,21.87
2023-05-09T05:50:42.116Z,21.54
2023-05-09T05:51:42.158Z,20.58
2023-05-09T05:52:42.255Z,20.90
2023-05-09T05:53:42.327Z,21.22
2023-05-09T05:54:42.461Z,21.22
2023-05-09T05:55:42.468Z,21.22
2023-05-09T05:56:42.562Z,20.25
2023-05-09T05:57:42.676Z,21.54
2023-05-09T05:58:42.740Z,21.54
2023-05-09T05:59:42.857Z,20.90
2023-05-09T06:00:42.906Z,20.90
2023-05-09T06:01:43.206Z,20.90
2023-05-09T06:02:43.228Z,21.22
2023-05-09T06:03:43.277Z,21.54
2023-05-09T06:04:43.223Z,21.22
2023-05-09T06:05:43.297Z,20.90
2023-05-09T06:06:43.405Z,22.19
2023-05-09T06:07:43.458Z,21.22
2023-05-09T06:08:43.537Z,20.25
2023-05-09T06:09:43.617Z,20.90
2023-05-09T06:10:43.701Z,20.58
2023-05-09T06:11:43.798Z,20.90
2023-05-09T06:12:43.959Z,22.51
2023-05-09T06:13:43.979Z,20.58
2023-05-09T06:14:44.138Z,21.22
2023-05-09T06:15:44.135Z,21.22
2023-05-09T06:16:44.278Z,20.90
2023-05-09T06:17:44.368Z,20.90
2023-05-09T06:18:44.374Z,20.25
2023-05-09T06:19:44.441Z,20.90
2023-05-09T06:20:44.539Z,20.58
2023-05-09T06:21:44.616Z,22.19
2023-05-09T06:22:44.707Z,21.22
2023-05-09T06:24:01.462Z,20.90
2023-05-09T06:24:44.846Z,21.22
2023-05-09T06:25:44.936Z,20.25
2023-05-09T06:26:45.018Z,20.90
2023-05-09T06:27:45.128Z,20.58
2023-05-09T06:28:45.198Z,21.22
2023-05-09T06:29:45.260Z,21.22
2023-05-09T06:30:45.344Z,20.90
2023-05-09T06:31:45.429Z,20.90
2023-05-09T06:32:45.637Z,20.25
2023-05-09T06:33:45.618Z,21.54
2023-05-09T06:34:45.741Z,21.22
2023-05-09T06:35:45.806Z,20.90
2023-05-09T06:36:45.868Z,21.54
2023-05-09T06:37:48.270Z,20.90
2023-05-09T06:38:46.046Z,21.22
2023-05-09T06:39:46.120Z,21.22
2023-05-09T06:40:46.230Z,20.90
2023-05-09T06:41:46.245Z,22.83
2023-05-09T06:42:46.333Z,20.90
2023-05-09T06:43:46.458Z,21.22
2023-05-09T06:44:46.572Z,21.54
2023-05-09T06:45:46.550Z,21.22
2023-05-09T06:46:46.688Z,20.90
2023-05-09T06:47:46.764Z,20.90
2023-05-09T06:48:46.806Z,21.22
2023-05-09T06:49:46.901Z,21.54
2023-05-09T06:50:46.967Z,20.58
2023-05-09T06:51:47.051Z,20.90
2023-05-09T06:52:47.131Z,20.90
2023-05-09T06:53:47.216Z,21.22
2023-05-09T06:54:47.283Z,21.22
2023-05-09T06:55:47.414Z,21.22
2023-05-09T06:56:47.489Z,20.90
2023-05-09T06:57:47.668Z,21.22
2023-05-09T06:58:47.676Z,21.22
2023-05-09T06:59:47.716Z,20.90
2023-05-09T07:00:47.771Z,21.87
2023-05-09T07:01:47.908Z,22.19
2023-05-09T07:02:47.959Z,21.87
2023-05-09T07:03:48.046Z,21.22
2023-05-09T07:04:48.180Z,21.87
2023-05-09T07:05:48.195Z,20.25
2023-05-09T07:06:48.273Z,21.87
2023-05-09T07:07:48.354Z,20.90
2023-05-09T07:08:48.481Z,20.90
2023-05-09T07:09:50.801Z,21.22
2023-05-09T07:10:48.618Z,21.22
2023-05-09T07:11:48.701Z,22.19
2023-05-09T07:12:48.798Z,21.22
2023-05-09T07:13:48.851Z,20.58
2023-05-09T07:14:48.923Z,20.25
2023-05-09T07:15:49.019Z,20.90
2023-05-09T07:16:49.191Z,21.22
2023-05-09T07:17:49.248Z,21.87
2023-05-09T07:18:49.262Z,21.87
2023-05-09T07:19:49.361Z,21.22
2023-05-09T07:20:49.501Z,20.90
2023-05-09T07:21:49.520Z,22.83
2023-05-09T07:22:49.631Z,21.54
2023-05-09T07:23:49.677Z,21.22
2023-05-09T07:24:49.777Z,20.25
2023-05-09T07:25:49.830Z,21.22
2023-05-09T07:26:49.904Z,21.22
2023-05-09T07:27:49.973Z,20.90
2023-05-09T07:28:50.058Z,21.22
2023-05-09T07:29:50.133Z,21.54
2023-05-09T07:30:50.204Z,21.22
2023-05-09T07:31:50.301Z,21.22
2023-05-09T07:32:50.422Z,22.51
2023-05-09T07:33:50.504Z,21.54
2023-05-09T07:34:50.633Z,21.22
2023-05-09T07:35:50.642Z,22.83
2023-05-09T07:36:50.765Z,21.54
2023-05-09T07:37:50.820Z,21.22
2023-05-09T07:38:50.887Z,21.54
2023-05-09T07:39:50.948Z,20.90
2023-05-09T07:40:51.081Z,20.90
2023-05-09T07:41:51.122Z,20.90
2023-05-09T07:42:51.261Z,21.22
2023-05-09T07:43:51.279Z,21.22
2023-05-09T07:44:51.387Z,21.54
2023-05-09T07:45:51.596Z,21.22
2023-05-09T07:46:51.588Z,20.90
2023-05-09T07:47:51.727Z,21.22
2023-05-09T07:48:51.745Z,22.19
2023-05-09T07:49:51.850Z,21.22
2023-05-09T07:50:51.922Z,21.54
2023-05-09T07:51:51.999Z,21.87
2023-05-09T07:52:52.111Z,20.90
2023-05-09T07:53:52.128Z,20.58
2023-05-09T07:54:52.199Z,20.90
2023-05-09T07:55:52.254Z,21.87
2023-05-09T07:56:52.352Z,21.22
2023-05-09T07:57:52.442Z,22.51
2023-05-09T07:58:54.328Z,21.22
2023-05-09T07:59:52.631Z,21.87
2023-05-09T08:00:52.698Z,21.54
2023-05-09T08:01:52.772Z,21.22
2023-05-09T08:02:52.924Z,21.54
2023-05-09T08:03:52.958Z,21.54
2023-05-09T08:04:53.020Z,21.22
2023-05-09T08:05:53.115Z,21.22
2023-05-09T08:06:53.259Z,21.22
2023-05-09T08:07:53.307Z,21.22
2023-05-09T08:08:53.376Z,21.22
2023-05-09T08:09:53.574Z,21.54
2023-05-09T08:10:53.548Z,20.90
2023-05-09T08:11:53.674Z,21.22
2023-05-09T08:12:53.767Z,21.54
2023-05-09T08:13:53.808Z,22.19
2023-05-09T08:14:53.868Z,21.87
2023-05-09T08:15:54.007Z,22.19
2023-05-09T08:16:54.045Z,22.19
2023-05-09T08:17:54.169Z,20.90
2023-05-09T08:18:54.204Z,20.58
2023-05-09T08:19:54.255Z,21.87
2023-05-09T08:20:54.421Z,21.54
2023-05-09T08:21:54.442Z,22.19
2023-05-09T08:22:54.556Z,21.22
2023-05-09T08:23:54.601Z,20.90
2023-05-09T08:24:54.701Z,21.54
2023-05-09T08:25:54.836Z,21.22
2023-05-09T08:26:54.866Z,20.58
2023-05-09T08:27:54.977Z,21.22
2023-05-09T08:28:55.002Z,22.51
2023-05-09T08:29:55.139Z,21.54
2023-05-09T08:30:55.239Z,21.22
2023-05-09T08:31:55.389Z,20.90
2023-05-09T08:32:55.413Z,22.51
2023-05-09T08:33:55.432Z,21.22
2023-05-09T08:34:55.503Z,22.19
2023-05-09T08:35:55.596Z,21.22
2023-05-09T08:36:55.689Z,21.54
2023-05-09T08:37:55.920Z,21.54
2023-05-09T08:38:55.849Z,22.51
2023-05-09T08:39:55.923Z,21.22
2023-05-09T08:40:56.015Z,23.15
2023-05-09T08:41:56.105Z,22.19
2023-05-09T08:42:56.212Z,21.54
2023-05-09T08:43:56.265Z,21.87
2023-05-09T08:44:56.355Z,21.22
2023-05-09T08:45:56.412Z,21.54
2023-05-09T08:46:56.517Z,21.22
2023-05-09T08:47:56.620Z,21.54
2023-05-09T08:48:56.692Z,21.22
2023-05-09T08:49:56.707Z,21.54
2023-05-09T08:50:56.780Z,21.54
2023-05-09T08:51:56.867Z,20.58
2023-05-09T08:52:56.935Z,22.51
2023-05-09T08:53:57.017Z,21.22
2023-05-09T08:54:57.123Z,21.87
2023-05-09T08:55:57.209Z,21.54
2023-05-09T08:56:57.268Z,21.22
2023-05-09T08:57:57.350Z,20.58
2023-05-09T08:58:57.451Z,21.22
2023-05-09T08:59:57.515Z,21.54
2023-05-09T09:00:57.587Z,21.22
2023-05-09T09:01:57.673Z,22.19
2023-05-09T09:02:57.775Z,21.22
2023-05-09T09:03:57.875Z,20.90
2023-05-09T09:04:57.924Z,22.19
2023-05-09T09:05:58.077Z,21.54
2023-05-09T09:06:58.086Z,21.54
2023-05-09T09:07:58.171Z,20.90
2023-05-09T09:08:58.300Z,22.19
2023-05-09T09:09:58.349Z,21.87
2023-05-09T09:10:58.453Z,21.54
2023-05-09T09:11:58.511Z,21.22
2023-05-09T09:12:58.607Z,21.54
2023-05-09T09:15:54.614Z,21.54
2023-05-09T09:16:55.884Z,22.19
2023-05-09T09:17:55.814Z,21.54
2023-05-09T09:18:58.530Z,21.54
2023-05-09T09:19:56.021Z,21.87
2023-05-09T09:20:56.074Z,21.54
2023-05-09T09:21:56.162Z,21.22
2023-05-09T09:22:56.230Z,21.22
2023-05-09T09:23:56.329Z,22.83
2023-05-09T09:24:56.443Z,20.90
2023-05-09T09:25:57.914Z,21.22
2023-05-09T09:26:56.583Z,21.54
2023-05-09T09:27:56.657Z,21.22
2023-05-09T09:28:56.739Z,21.22
2023-05-09T09:29:56.826Z,20.90
2023-05-09T09:30:56.900Z,21.22
2023-05-09T09:31:57.016Z,21.22
2023-05-09T09:32:57.091Z,21.87
2023-05-09T09:33:57.163Z,21.54
2023-05-09T09:34:57.261Z,21.22
2023-05-09T09:35:57.505Z,21.54
2023-05-09T09:36:57.429Z,21.22
2023-05-09T09:37:59.176Z,21.54
2023-05-09T09:38:57.587Z,20.58
2023-05-09T09:39:57.664Z,21.54
2023-05-09T09:40:57.738Z,21.54
2023-05-09T09:41:58.597Z,21.22
2023-05-09T09:42:57.872Z,21.22
2023-05-09T09:43:58.859Z,21.54
2023-05-09T09:44:58.055Z,21.22
2023-05-09T09:45:58.306Z,21.54
2023-05-09T09:46:58.224Z,21.54
2023-05-09T09:47:58.316Z,21.22
2023-05-09T09:48:58.371Z,21.54
2023-05-09T09:49:58.455Z,22.51
2023-05-09T09:50:58.548Z,21.22
2023-05-09T09:51:58.627Z,20.90
2023-05-09T09:52:58.697Z,21.22
2023-05-09T09:53:58.770Z,21.54
2023-05-09T09:54:58.842Z,21.87
2023-05-09T09:55:58.918Z,21.87
2023-05-09T09:56:59.023Z,21.22
2023-05-09T09:57:59.093Z,20.90
2023-05-09T09:58:59.135Z,23.48
2023-05-09T09:59:59.242Z,20.90
2023-05-09T10:00:59.313Z,20.90
2023-05-09T10:01:59.358Z,21.54
2023-05-09T10:02:59.485Z,23.15
2023-05-09T10:03:59.548Z,20.90
2023-05-09T10:04:59.662Z,21.54
2023-05-09T10:05:59.699Z,21.22
2023-05-09T10:06:59.815Z,21.54
2023-05-09T10:07:59.845Z,21.22
2023-05-09T10:08:59.934Z,22.83
2023-05-09T10:10:00.014Z,21.54
2023-05-09T10:11:00.130Z,21.54
2023-05-09T10:12:00.278Z,21.22
2023-05-09T10:13:00.325Z,20.90
2023-05-09T10:14:00.369Z,23.15
2023-05-09T10:15:00.492Z,21.87
2023-05-09T10:16:00.831Z,21.54
2023-05-09T10:17:00.649Z,21.22
2023-05-09T10:18:00.857Z,21.22
2023-05-09T10:19:00.807Z,22.19
2023-05-09T10:20:00.846Z,21.22
2023-05-09T10:21:00.919Z,21.54
2023-05-09T10:22:00.960Z,22.19
2023-05-09T10:23:01.077Z,21.54
2023-05-09T10:24:01.150Z,21.54
2023-05-09T10:25:01.243Z,21.54
2023-05-09T10:26:01.352Z,21.54
2023-05-09T10:27:01.396Z,21.54
2023-05-09T10:28:01.464Z,21.54
2023-05-09T10:29:01.559Z,21.22
2023-05-09T10:30:01.625Z,18.96
2023-05-09T10:31:01.734Z,21.22
2023-05-09T10:32:01.801Z,21.22
2023-05-09T10:33:01.937Z,21.22
2023-05-09T10:34:02.017Z,21.54
2023-05-09T10:35:02.061Z,21.54
2023-05-09T10:36:02.138Z,21.22
2023-05-09T10:37:02.235Z,21.22
2023-05-09T10:38:02.327Z,21.22
2023-05-09T10:39:02.406Z,21.54
2023-05-09T10:40:02.525Z,21.54
2023-05-09T10:41:02.589Z,21.22
2023-05-09T10:42:02.777Z,21.22
2023-05-09T10:43:02.913Z,22.51
2023-05-09T10:44:02.941Z,21.22
2023-05-09T10:45:02.956Z,21.54
2023-05-09T10:46:03.116Z,21.87
2023-05-09T10:47:03.132Z,21.54
2023-05-09T10:48:03.284Z,22.19
2023-05-09T10:49:03.270Z,21.22
2023-05-09T10:50:03.399Z,21.87
2023-05-09T10:51:03.447Z,20.90
2023-05-09T10:52:03.547Z,20.90
2023-05-09T10:53:03.600Z,23.48
2023-05-09T10:54:03.707Z,22.83
2023-05-09T10:55:03.751Z,24.12
2023-05-09T10:56:03.849Z,22.19
2023-05-09T10:57:03.932Z,21.54
2023-05-09T10:58:04.164Z,22.51
2023-05-09T10:59:04.142Z,21.54
2023-05-09T11:00:04.230Z,21.87
2023-05-09T11:01:04.280Z,21.87
2023-05-09T11:02:04.598Z,22.19
2023-05-09T11:03:04.491Z,21.54
2023-05-09T11:04:04.610Z,22.51
2023-05-09T11:05:04.606Z,22.19
2023-05-09T11:06:04.678Z,22.51
2023-05-09T11:07:04.770Z,21.54
2023-05-09T11:08:04.875Z,21.87
2023-05-09T11:09:04.966Z,21.54
2023-05-09T11:10:05.011Z,22.19
2023-05-09T11:11:05.139Z,21.87
2023-05-09T11:12:05.340Z,23.48
2023-05-09T11:13:05.301Z,22.19
2023-05-09T11:14:05.403Z,21.87
2023-05-09T11:15:05.467Z,22.19
2023-05-09T11:16:05.573Z,22.19
2023-05-09T11:17:05.622Z,21.87
2023-05-09T11:18:05.820Z,21.87
2023-05-09T11:19:05.773Z,21.87
2023-05-09T11:20:05.916Z,21.22
2023-05-09T11:21:05.956Z,21.87
2023-05-09T11:22:06.027Z,21.87
2023-05-09T11:23:06.110Z,22.19
2023-05-09T11:24:06.190Z,22.19
2023-05-09T11:25:06.303Z,22.19
2023-05-09T11:26:06.323Z,21.87
2023-05-09T11:27:06.400Z,21.54
2023-05-09T11:28:06.475Z,21.87
2023-05-09T11:29:06.570Z,21.54
2023-05-09T11:30:06.666Z,21.87
2023-05-09T11:31:06.741Z,21.87
2023-05-09T11:32:06.939Z,21.87
2023-05-09T11:33:06.985Z,21.87
2023-05-09T11:34:07.008Z,23.15
2023-05-09T11:35:07.033Z,24.12
2023-05-09T11:36:07.114Z,22.83
2023-05-09T11:37:07.330Z,23.48
2023-05-09T11:38:07.289Z,23.48
2023-05-09T11:39:07.356Z,21.87
2023-05-09T11:40:07.432Z,22.51
2023-05-09T11:41:07.517Z,22.51
2023-05-09T11:42:07.592Z,21.87
2023-05-09T11:43:07.672Z,21.87
2023-05-09T11:44:07.735Z,21.87
2023-05-09T11:45:07.809Z,21.54
2023-05-09T11:46:07.918Z,21.87
2023-05-09T11:47:07.979Z,21.87
2023-05-09T11:48:08.114Z,22.19
2023-05-09T11:49:09.543Z,21.87
2023-05-09T11:50:08.216Z,22.51
2023-05-09T11:51:08.324Z,21.87
2023-05-09T11:52:08.372Z,21.87
2023-05-09T11:53:08.538Z,22.19
2023-05-09T11:54:08.529Z,21.87
2023-05-09T11:55:10.842Z,23.80
2023-05-09T11:56:08.710Z,22.83
2023-05-09T11:57:08.810Z,23.80
2023-05-09T11:58:08.903Z,21.54
2023-05-09T11:59:08.955Z,22.19
2023-05-09T12:00:09.050Z,24.12
2023-05-09T12:01:11.227Z,21.54
2023-05-09T12:02:09.356Z,21.87
2023-05-09T12:03:09.371Z,21.54
2023-05-09T12:04:09.424Z,22.51
2023-05-09T12:05:09.486Z,23.48
2023-05-09T12:06:09.563Z,22.19
2023-05-09T12:07:09.648Z,22.19
2023-05-09T12:08:09.750Z,22.51
2023-05-09T12:09:09.808Z,22.83
2023-05-09T12:10:09.875Z,21.87
2023-05-09T12:11:09.957Z,21.87
2023-05-09T12:12:10.068Z,21.54
2023-05-09T12:13:10.290Z,21.87
2023-05-09T12:14:10.247Z,21.87
2023-05-09T12:15:10.405Z,22.19
2023-05-09T12:16:10.571Z,21.87
2023-05-09T12:17:10.532Z,24.44
2023-05-09T12:18:10.633Z,22.19
2023-05-09T12:19:10.690Z,22.19
2023-05-09T12:20:10.766Z,21.22
2023-05-09T12:21:10.848Z,21.54
2023-05-09T12:22:10.928Z,21.87
2023-05-09T12:23:11.016Z,21.87
2023-05-09T12:24:11.086Z,22.19
2023-05-09T12:25:11.168Z,22.19
2023-05-09T12:26:11.223Z,22.19
2023-05-09T12:27:11.453Z,23.80
2023-05-09T12:28:11.410Z,22.51
2023-05-09T12:29:11.460Z,21.87
2023-05-09T12:30:11.545Z,22.19
2023-05-09T12:31:11.678Z,21.87
2023-05-09T12:32:11.705Z,22.83
2023-05-09T12:33:11.790Z,22.19
2023-05-09T12:34:11.883Z,22.19
2023-05-09T12:35:11.965Z,22.83
2023-05-09T12:36:12.048Z,22.51
2023-05-09T12:37:12.108Z,21.87
2023-05-09T12:38:12.214Z,22.51
2023-05-09T12:39:12.305Z,22.19
2023-05-09T12:40:12.608Z,22.19
2023-05-09T12:41:33.376Z,22.19
2023-05-09T12:42:12.540Z,22.19
2023-05-09T12:43:12.620Z,22.83
2023-05-09T12:44:12.709Z,21.87
2023-05-09T12:45:12.962Z,22.19
2023-05-09T12:46:12.948Z,22.51
2023-05-09T12:47:13.009Z,21.54
2023-05-09T12:48:13.082Z,22.51
2023-05-09T12:49:13.079Z,24.12
2023-05-09T12:50:13.146Z,21.87
2023-05-09T12:51:13.244Z,25.41
2023-05-09T12:52:13.318Z,21.87
2023-05-09T12:53:13.395Z,22.51
2023-05-09T12:54:13.475Z,22.19
2023-05-09T12:55:13.737Z,24.12
2023-05-09T12:56:13.629Z,22.19